sensor_id;sensor_type;location;lat;lon;timestamp;pressure;altitude;pressure_sealevel;temperature;humidity
22550;BME280;11441;57.164;-2.120;2023-06-22T00:00:40;101076.22;;;17.50;100.00
22550;BME280;11441;57.164;-2.120;2023-06-22T00:03:09;101080.16;;;17.39;100.00
22550;BME280;11441;57.164;-2.120;2023-06-22T00:05:36;101073.41;;;17.43;100.00
22550;BME280;11441;57.164;-2.120;2023-06-22T00:08:03;101078.97;;;17.43;100.00
22550;BME280;11441;57.164;-2.120;2023-06-22T00:10:33;101064.66;;;17.48;100.00
22550;BME280;11441;57.164;-2.120;2023-06-22T00:13:00;101069.81;;;17.39;100.00
22550;BME280;11441;57.164;-2.120;2023-06-22T00:15:27;101068.19;;;17.31;100.00
22550;BME280;11441;57.164;-2.120;2023-06-22T00:17:54;101078.88;;;17.18;100.00
22550;BME280;11441;57.164;-2.120;2023-06-22T00:23:26;101085.63;;;17.13;100.00
22550;BME280;11441;57.164;-2.120;2023-06-22T00:25:54;101083.22;;;17.12;100.00
22550;BME280;11441;57.164;-2.120;2023-06-22T00:28:21;101086.00;;;17.12;100.00
22550;BME280;11441;57.164;-2.120;2023-06-22T00:30:49;101091.16;;;17.10;100.00
22550;BME280;11441;57.164;-2.120;2023-06-22T00:33:17;101091.13;;;17.03;100.00
22550;BME280;11441;57.164;-2.120;2023-06-22T00:35:44;101084.38;;;16.96;100.00
22550;BME280;11441;57.164;-2.120;2023-06-22T00:38:11;101089.06;;;16.85;100.00
22550;BME280;11441;57.164;-2.120;2023-06-22T00:40:41;101091.78;;;16.78;100.00
22550;BME280;11441;57.164;-2.120;2023-06-22T00:43:08;101091.84;;;16.89;100.00
22550;BME280;11441;57.164;-2.120;2023-06-22T00:45:35;101100.06;;;16.67;100.00
22550;BME280;11441;57.164;-2.120;2023-06-22T00:48:03;101096.44;;;16.63;100.00
22550;BME280;11441;57.164;-2.120;2023-06-22T00:50:47;101102.47;;;16.72;100.00
22550;BME280;11441;57.164;-2.120;2023-06-22T00:53:18;101109.53;;;16.59;100.00
22550;BME280;11441;57.164;-2.120;2023-06-22T00:55:45;101100.41;;;16.62;100.00
22550;BME280;11441;57.164;-2.120;2023-06-22T00:58:18;101113.41;;;16.47;100.00
22550;BME280;11441;57.164;-2.120;2023-06-22T01:00:49;101114.19;;;16.44;100.00
22550;BME280;11441;57.164;-2.120;2023-06-22T01:03:16;101111.56;;;16.66;100.00
22550;BME280;11441;57.164;-2.120;2023-06-22T01:06:10;101117.44;;;16.53;100.00
22550;BME280;11441;57.164;-2.120;2023-06-22T01:08:56;101111.19;;;16.71;100.00
22550;BME280;11441;57.164;-2.120;2023-06-22T01:11:39;101112.75;;;16.68;100.00
22550;BME280;11441;57.164;-2.120;2023-06-22T01:16:41;101130.66;;;16.67;100.00
22550;BME280;11441;57.164;-2.120;2023-06-22T01:19:22;101132.56;;;16.59;100.00
22550;BME280;11441;57.164;-2.120;2023-06-22T01:21:55;101138.06;;;16.52;100.00
22550;BME280;11441;57.164;-2.120;2023-06-22T01:30:08;101136.78;;;16.39;100.00
22550;BME280;11441;57.164;-2.120;2023-06-22T01:32:38;101143.94;;;16.40;100.00
22550;BME280;11441;57.164;-2.120;2023-06-22T01:35:07;101145.16;;;16.43;100.00
22550;BME280;11441;57.164;-2.120;2023-06-22T01:37:36;101140.81;;;16.49;100.00
22550;BME280;11441;57.164;-2.120;2023-06-22T01:40:05;101142.69;;;16.34;100.00
22550;BME280;11441;57.164;-2.120;2023-06-22T01:42:36;101144.53;;;16.19;100.00
22550;BME280;11441;57.164;-2.120;2023-06-22T01:45:04;101137.31;;;16.11;100.00
22550;BME280;11441;57.164;-2.120;2023-06-22T01:47:32;101142.78;;;16.03;100.00
22550;BME280;11441;57.164;-2.120;2023-06-22T01:50:01;101140.88;;;16.08;100.00
22550;BME280;11441;57.164;-2.120;2023-06-22T01:52:28;101140.88;;;16.08;100.00
22550;BME280;11441;57.164;-2.120;2023-06-22T01:54:56;101142.88;;;16.11;100.00
22550;BME280;11441;57.164;-2.120;2023-06-22T01:57:24;101147.25;;;16.12;100.00
22550;BME280;11441;57.164;-2.120;2023-06-22T02:02:22;101148.91;;;16.16;100.00
22550;BME280;11441;57.164;-2.120;2023-06-22T02:04:59;101156.84;;;16.18;100.00
22550;BME280;11441;57.164;-2.120;2023-06-22T02:07:34;101159.34;;;16.30;100.00
22550;BME280;11441;57.164;-2.120;2023-06-22T02:10:07;101160.44;;;16.22;100.00
22550;BME280;11441;57.164;-2.120;2023-06-22T02:12:35;101169.53;;;16.19;100.00
22550;BME280;11441;57.164;-2.120;2023-06-22T02:15:03;101161.66;;;16.25;100.00
22550;BME280;11441;57.164;-2.120;2023-06-22T02:17:30;101164.75;;;16.16;100.00
22550;BME280;11441;57.164;-2.120;2023-06-22T02:20:02;101171.03;;;16.09;100.00
22550;BME280;11441;57.164;-2.120;2023-06-22T02:22:31;101166.63;;;16.05;100.00
22550;BME280;11441;57.164;-2.120;2023-06-22T02:24:58;101173.13;;;16.19;100.00
22550;BME280;11441;57.164;-2.120;2023-06-22T02:27:25;101173.94;;;16.20;100.00
22550;BME280;11441;57.164;-2.120;2023-06-22T02:29:52;101177.81;;;16.12;100.00
22550;BME280;11441;57.164;-2.120;2023-06-22T02:32:19;101182.28;;;16.20;100.00
22550;BME280;11441;57.164;-2.120;2023-06-22T02:34:45;101179.25;;;15.98;100.00
22550;BME280;11441;57.164;-2.120;2023-06-22T02:37:15;101181.25;;;15.98;100.00
22550;BME280;11441;57.164;-2.120;2023-06-22T02:39:42;101175.56;;;15.87;100.00
22550;BME280;11441;57.164;-2.120;2023-06-22T02:42:09;101176.47;;;15.98;100.00
22550;BME280;11441;57.164;-2.120;2023-06-22T02:44:39;101188.59;;;16.17;100.00
22550;BME280;11441;57.164;-2.120;2023-06-22T02:47:06;101185.34;;;16.11;100.00
22550;BME280;11441;57.164;-2.120;2023-06-22T02:49:33;101193.78;;;16.22;100.00
22550;BME280;11441;57.164;-2.120;2023-06-22T02:52:00;101187.41;;;16.18;100.00
22550;BME280;11441;57.164;-2.120;2023-06-22T02:54:27;101194.22;;;16.24;100.00
22550;BME280;11441;57.164;-2.120;2023-06-22T02:56:54;101193.31;;;16.13;100.00
22550;BME280;11441;57.164;-2.120;2023-06-22T02:59:22;101198.31;;;16.00;100.00
22550;BME280;11441;57.164;-2.120;2023-06-22T03:01:57;101197.94;;;16.01;100.00
22550;BME280;11441;57.164;-2.120;2023-06-22T03:04:28;101200.94;;;15.86;100.00
22550;BME280;11441;57.164;-2.120;2023-06-22T03:06:55;101201.84;;;15.63;100.00
22550;BME280;11441;57.164;-2.120;2023-06-22T03:09:22;101199.28;;;15.81;100.00
22550;BME280;11441;57.164;-2.120;2023-06-22T03:11:50;101200.06;;;15.78;100.00
22550;BME280;11441;57.164;-2.120;2023-06-22T03:14:18;101210.38;;;15.77;100.00
22550;BME280;11441;57.164;-2.120;2023-06-22T03:16:45;101202.72;;;15.71;100.00
22550;BME280;11441;57.164;-2.120;2023-06-22T03:19:12;101204.69;;;15.70;100.00
22550;BME280;11441;57.164;-2.120;2023-06-22T03:21:39;101205.94;;;15.73;100.00
22550;BME280;11441;57.164;-2.120;2023-06-22T03:24:06;101208.34;;;15.44;100.00
22550;BME280;11441;57.164;-2.120;2023-06-22T03:26:34;101210.03;;;15.52;100.00
22550;BME280;11441;57.164;-2.120;2023-06-22T03:29:01;101209.66;;;15.54;100.00
22550;BME280;11441;57.164;-2.120;2023-06-22T03:31:29;101195.69;;;15.46;100.00
22550;BME280;11441;57.164;-2.120;2023-06-22T03:33:56;101214.13;;;15.32;100.00
22550;BME280;11441;57.164;-2.120;2023-06-22T03:36:23;101207.59;;;15.47;100.00
22550;BME280;11441;57.164;-2.120;2023-06-22T03:38:51;101212.81;;;15.52;100.00
22550;BME280;11441;57.164;-2.120;2023-06-22T03:41:18;101218.91;;;15.65;100.00
22550;BME280;11441;57.164;-2.120;2023-06-22T03:43:46;101215.53;;;15.49;100.00
22550;BME280;11441;57.164;-2.120;2023-06-22T03:46:14;101220.84;;;15.61;100.00
22550;BME280;11441;57.164;-2.120;2023-06-22T03:48:42;101221.19;;;15.56;100.00
22550;BME280;11441;57.164;-2.120;2023-06-22T03:51:09;101213.00;;;15.36;100.00
22550;BME280;11441;57.164;-2.120;2023-06-22T03:53:36;101230.50;;;15.40;100.00
22550;BME280;11441;57.164;-2.120;2023-06-22T03:56:03;101234.38;;;15.36;100.00
22550;BME280;11441;57.164;-2.120;2023-06-22T03:58:48;101221.00;;;15.41;100.00
22550;BME280;11441;57.164;-2.120;2023-06-22T04:01:16;101231.78;;;15.20;100.00
22550;BME280;11441;57.164;-2.120;2023-06-22T04:03:43;101219.78;;;15.12;100.00
22550;BME280;11441;57.164;-2.120;2023-06-22T04:06:10;101234.28;;;15.02;100.00
22550;BME280;11441;57.164;-2.120;2023-06-22T04:08:37;101237.59;;;15.11;100.00
22550;BME280;11441;57.164;-2.120;2023-06-22T04:11:04;101239.88;;;15.05;100.00
22550;BME280;11441;57.164;-2.120;2023-06-22T04:13:31;101232.31;;;15.02;100.00
22550;BME280;11441;57.164;-2.120;2023-06-22T04:15:58;101234.28;;;15.02;100.00
22550;BME280;11441;57.164;-2.120;2023-06-22T04:18:27;101234.81;;;15.11;100.00
22550;BME280;11441;57.164;-2.120;2023-06-22T04:20:54;101234.53;;;15.20;100.00
22550;BME280;11441;57.164;-2.120;2023-06-22T04:23:21;101236.13;;;15.17;100.00
22550;BME280;11441;57.164;-2.120;2023-06-22T04:25:48;101246.78;;;15.15;100.00
22550;BME280;11441;57.164;-2.120;2023-06-22T04:28:15;101236.31;;;15.32;100.00
22550;BME280;11441;57.164;-2.120;2023-06-22T04:30:59;101241.75;;;15.24;100.00
22550;BME280;11441;57.164;-2.120;2023-06-22T04:33:30;101246.28;;;15.09;100.00
22550;BME280;11441;57.164;-2.120;2023-06-22T04:36:16;101249.31;;;15.01;100.00
22550;BME280;11441;57.164;-2.120;2023-06-22T04:38:43;101245.69;;;14.97;100.00
22550;BME280;11441;57.164;-2.120;2023-06-22T04:41:10;101255.22;;;14.99;100.00
22550;BME280;11441;57.164;-2.120;2023-06-22T04:43:40;101252.72;;;14.90;100.00
22550;BME280;11441;57.164;-2.120;2023-06-22T04:46:07;101259.78;;;15.11;100.00
22550;BME280;11441;57.164;-2.120;2023-06-22T04:48:34;101256.72;;;14.93;100.00
22550;BME280;11441;57.164;-2.120;2023-06-22T04:51:01;101268.81;;;14.81;100.00
22550;BME280;11441;57.164;-2.120;2023-06-22T04:53:31;101259.44;;;14.89;100.00
22550;BME280;11441;57.164;-2.120;2023-06-22T04:55:58;101242.00;;;14.89;100.00
22550;BME280;11441;57.164;-2.120;2023-06-22T04:58:25;101251.56;;;14.92;100.00
22550;BME280;11441;57.164;-2.120;2023-06-22T05:00:55;101254.94;;;14.81;100.00
22550;BME280;11441;57.164;-2.120;2023-06-22T05:03:25;101261.41;;;14.89;100.00
22550;BME280;11441;57.164;-2.120;2023-06-22T05:05:53;101280.31;;;14.83;100.00
22550;BME280;11441;57.164;-2.120;2023-06-22T05:08:20;101283.28;;;14.94;100.00
22550;BME280;11441;57.164;-2.120;2023-06-22T05:10:47;101280.81;;;15.12;100.00
22550;BME280;11441;57.164;-2.120;2023-06-22T05:13:20;101285.44;;;14.81;100.00
22550;BME280;11441;57.164;-2.120;2023-06-22T05:15:48;101290.81;;;14.70;100.00
22550;BME280;11441;57.164;-2.120;2023-06-22T05:18:15;101295.00;;;14.84;100.00
22550;BME280;11441;57.164;-2.120;2023-06-22T05:20:42;101273.94;;;14.79;100.00
22550;BME280;11441;57.164;-2.120;2023-06-22T05:23:09;101288.53;;;14.76;100.00
22550;BME280;11441;57.164;-2.120;2023-06-22T05:25:36;101293.94;;;14.92;100.00
22550;BME280;11441;57.164;-2.120;2023-06-22T05:28:21;101283.97;;;15.11;100.00
22550;BME280;11441;57.164;-2.120;2023-06-22T05:30:50;101305.66;;;15.05;100.00
22550;BME280;11441;57.164;-2.120;2023-06-22T05:33:17;101299.00;;;14.63;100.00
22550;BME280;11441;57.164;-2.120;2023-06-22T05:35:44;101308.88;;;14.84;100.00
22550;BME280;11441;57.164;-2.120;2023-06-22T05:38:11;101292.56;;;14.59;100.00
22550;BME280;11441;57.164;-2.120;2023-06-22T05:40:38;101303.63;;;14.79;100.00
22550;BME280;11441;57.164;-2.120;2023-06-22T05:43:04;101298.59;;;14.61;100.00
22550;BME280;11441;57.164;-2.120;2023-06-22T05:45:50;101309.69;;;14.84;100.00
22550;BME280;11441;57.164;-2.120;2023-06-22T05:48:17;101305.31;;;15.06;100.00
22550;BME280;11441;57.164;-2.120;2023-06-22T05:50:44;101311.59;;;15.03;100.00
22550;BME280;11441;57.164;-2.120;2023-06-22T05:53:11;101301.41;;;15.11;100.00
22550;BME280;11441;57.164;-2.120;2023-06-22T05:55:38;101313.00;;;14.94;100.00
22550;BME280;11441;57.164;-2.120;2023-06-22T05:58:05;101310.53;;;14.88;100.00
22550;BME280;11441;57.164;-2.120;2023-06-22T06:00:32;101310.22;;;14.94;100.00
22550;BME280;11441;57.164;-2.120;2023-06-22T06:02:59;101313.59;;;14.83;100.00
22550;BME280;11441;57.164;-2.120;2023-06-22T06:05:31;101315.47;;;14.76;100.00
22550;BME280;11441;57.164;-2.120;2023-06-22T06:08:03;101304.25;;;14.68;100.00
22550;BME280;11441;57.164;-2.120;2023-06-22T06:10:32;101320.13;;;14.71;100.00
22550;BME280;11441;57.164;-2.120;2023-06-22T06:13:00;101309.91;;;14.76;100.00
22550;BME280;11441;57.164;-2.120;2023-06-22T06:15:30;101320.81;;;14.88;100.00
22550;BME280;11441;57.164;-2.120;2023-06-22T06:17:57;101322.81;;;14.87;100.00
22550;BME280;11441;57.164;-2.120;2023-06-22T06:20:24;101321.25;;;15.13;100.00
22550;BME280;11441;57.164;-2.120;2023-06-22T06:22:52;101326.00;;;15.13;100.00
22550;BME280;11441;57.164;-2.120;2023-06-22T06:25:19;101319.09;;;15.26;100.00
22550;BME280;11441;57.164;-2.120;2023-06-22T06:27:50;101326.06;;;15.16;100.00
22550;BME280;11441;57.164;-2.120;2023-06-22T06:30:18;101321.66;;;15.38;100.00
22550;BME280;11441;57.164;-2.120;2023-06-22T06:32:46;101320.28;;;15.28;100.00
22550;BME280;11441;57.164;-2.120;2023-06-22T06:35:14;101328.41;;;15.41;100.00
22550;BME280;11441;57.164;-2.120;2023-06-22T06:37:44;101324.53;;;15.45;100.00
22550;BME280;11441;57.164;-2.120;2023-06-22T06:40:13;101328.09;;;15.19;100.00
22550;BME280;11441;57.164;-2.120;2023-06-22T06:42:44;101332.81;;;15.42;100.00
22550;BME280;11441;57.164;-2.120;2023-06-22T06:45:15;101333.53;;;15.39;100.00
22550;BME280;11441;57.164;-2.120;2023-06-22T06:47:42;101336.59;;;15.57;100.00
22550;BME280;11441;57.164;-2.120;2023-06-22T06:50:10;101337.31;;;15.77;100.00
22550;BME280;11441;57.164;-2.120;2023-06-22T06:52:37;101333.94;;;15.91;100.00
22550;BME280;11441;57.164;-2.120;2023-06-22T06:55:23;101337.91;;;15.93;100.00
22550;BME280;11441;57.164;-2.120;2023-06-22T06:57:52;101336.25;;;15.85;100.00
22550;BME280;11441;57.164;-2.120;2023-06-22T07:00:19;101335.97;;;15.94;100.00
22550;BME280;11441;57.164;-2.120;2023-06-22T07:02:46;101334.13;;;16.05;100.00
22550;BME280;11441;57.164;-2.120;2023-06-22T07:05:15;101326.06;;;15.96;100.00
22550;BME280;11441;57.164;-2.120;2023-06-22T07:07:42;101326.56;;;16.06;100.00
22550;BME280;11441;57.164;-2.120;2023-06-22T07:10:10;101331.28;;;16.01;100.00
22550;BME280;11441;57.164;-2.120;2023-06-22T07:12:37;101331.25;;;15.98;100.00
22550;BME280;11441;57.164;-2.120;2023-06-22T07:15:05;101343.97;;;15.99;100.00
22550;BME280;11441;57.164;-2.120;2023-06-22T07:17:35;101333.66;;;15.99;100.00
22550;BME280;11441;57.164;-2.120;2023-06-22T07:20:03;101334.56;;;16.11;100.00
22550;BME280;11441;57.164;-2.120;2023-06-22T07:22:39;101339.41;;;16.17;100.00
22550;BME280;11441;57.164;-2.120;2023-06-22T07:25:07;101334.72;;;16.21;100.00
22550;BME280;11441;57.164;-2.120;2023-06-22T07:27:39;101324.81;;;16.24;100.00
22550;BME280;11441;57.164;-2.120;2023-06-22T07:30:10;101329.72;;;16.34;100.00
22550;BME280;11441;57.164;-2.120;2023-06-22T07:32:37;101338.13;;;16.42;100.00
22550;BME280;11441;57.164;-2.120;2023-06-22T07:35:04;101337.41;;;16.48;100.00
22550;BME280;11441;57.164;-2.120;2023-06-22T07:37:31;101347.81;;;16.55;100.00
22550;BME280;11441;57.164;-2.120;2023-06-22T07:39:59;101344.00;;;16.70;100.00
22550;BME280;11441;57.164;-2.120;2023-06-22T07:42:27;101347.28;;;16.80;100.00
22550;BME280;11441;57.164;-2.120;2023-06-22T07:44:54;101350.91;;;16.84;100.00
22550;BME280;11441;57.164;-2.120;2023-06-22T07:47:21;101350.91;;;16.84;100.00
22550;BME280;11441;57.164;-2.120;2023-06-22T07:49:52;101346.16;;;16.84;100.00
22550;BME280;11441;57.164;-2.120;2023-06-22T07:52:21;101355.25;;;16.81;100.00
22550;BME280;11441;57.164;-2.120;2023-06-22T07:54:48;101354.41;;;16.81;100.00
22550;BME280;11441;57.164;-2.120;2023-06-22T07:57:15;101357.78;;;16.93;100.00
22550;BME280;11441;57.164;-2.120;2023-06-22T07:59:42;101354.69;;;17.02;100.00
22550;BME280;11441;57.164;-2.120;2023-06-22T08:02:09;101358.25;;;17.03;100.00
22550;BME280;11441;57.164;-2.120;2023-06-22T08:04:36;101359.88;;;17.07;100.00
22550;BME280;11441;57.164;-2.120;2023-06-22T08:07:04;101361.81;;;17.03;100.00
22550;BME280;11441;57.164;-2.120;2023-06-22T08:09:50;101356.69;;;17.05;100.00
22550;BME280;11441;57.164;-2.120;2023-06-22T08:12:17;101358.72;;;17.12;100.00
22550;BME280;11441;57.164;-2.120;2023-06-22T08:14:45;101363.13;;;17.17;100.00
22550;BME280;11441;57.164;-2.120;2023-06-22T08:17:13;101365.16;;;17.20;100.00
22550;BME280;11441;57.164;-2.120;2023-06-22T08:19:40;101351.59;;;17.14;100.00
22550;BME280;11441;57.164;-2.120;2023-06-22T08:22:07;101364.13;;;17.39;100.00
22550;BME280;11441;57.164;-2.120;2023-06-22T08:24:34;101368.06;;;17.34;100.00
22550;BME280;11441;57.164;-2.120;2023-06-22T08:27:01;101365.31;;;17.38;100.00
22550;BME280;11441;57.164;-2.120;2023-06-22T08:29:45;101364.16;;;17.42;100.00
22550;BME280;11441;57.164;-2.120;2023-06-22T08:32:12;101367.34;;;17.44;100.00
22550;BME280;11441;57.164;-2.120;2023-06-22T08:34:39;101366.66;;;17.58;100.00
22550;BME280;11441;57.164;-2.120;2023-06-22T08:37:28;101373.84;;;17.59;100.00
22550;BME280;11441;57.164;-2.120;2023-06-22T08:40:04;101373.81;;;17.56;100.00
22550;BME280;11441;57.164;-2.120;2023-06-22T08:42:40;101378.16;;;17.53;100.00
22550;BME280;11441;57.164;-2.120;2023-06-22T08:45:07;101376.63;;;17.59;100.00
22550;BME280;11441;57.164;-2.120;2023-06-22T08:47:34;101377.03;;;17.65;100.00
22550;BME280;11441;57.164;-2.120;2023-06-22T08:50:01;101375.81;;;17.62;100.00
22550;BME280;11441;57.164;-2.120;2023-06-22T08:52:30;101377.44;;;17.67;100.00
22550;BME280;11441;57.164;-2.120;2023-06-22T08:54:57;101393.03;;;17.75;100.00
22550;BME280;11441;57.164;-2.120;2023-06-22T08:57:28;101366.25;;;17.56;100.00
22550;BME280;11441;57.164;-2.120;2023-06-22T08:59:56;101385.50;;;17.79;100.00
22550;BME280;11441;57.164;-2.120;2023-06-22T09:02:26;101372.34;;;17.76;100.00
22550;BME280;11441;57.164;-2.120;2023-06-22T09:04:58;101376.72;;;17.77;100.00
22550;BME280;11441;57.164;-2.120;2023-06-22T09:07:25;101390.69;;;17.84;100.00
22550;BME280;11441;57.164;-2.120;2023-06-22T09:09:52;101382.28;;;17.77;99.63
22550;BME280;11441;57.164;-2.120;2023-06-22T09:12:20;101384.88;;;18.07;100.00
22550;BME280;11441;57.164;-2.120;2023-06-22T09:14:51;101383.41;;;18.28;100.00
22550;BME280;11441;57.164;-2.120;2023-06-22T09:17:18;101379.69;;;18.02;100.00
22550;BME280;11441;57.164;-2.120;2023-06-22T09:19:45;101379.69;;;18.06;98.84
22550;BME280;11441;57.164;-2.120;2023-06-22T09:22:14;101384.91;;;18.15;100.00
22550;BME280;11441;57.164;-2.120;2023-06-22T09:24:41;101391.69;;;18.10;100.00
22550;BME280;11441;57.164;-2.120;2023-06-22T09:27:08;101387.31;;;18.13;100.00
22550;BME280;11441;57.164;-2.120;2023-06-22T09:29:35;101383.38;;;18.24;100.00
22550;BME280;11441;57.164;-2.120;2023-06-22T09:32:02;101382.59;;;18.24;100.00
22550;BME280;11441;57.164;-2.120;2023-06-22T09:34:29;101388.22;;;18.35;100.00
22550;BME280;11441;57.164;-2.120;2023-06-22T09:36:58;101395.41;;;18.39;100.00
22550;BME280;11441;57.164;-2.120;2023-06-22T09:39:27;101398.63;;;18.49;100.00
22550;BME280;11441;57.164;-2.120;2023-06-22T09:41:54;101400.66;;;18.62;99.97
22550;BME280;11441;57.164;-2.120;2023-06-22T09:44:21;101404.22;;;18.52;97.64
22550;BME280;11441;57.164;-2.120;2023-06-22T09:46:48;101399.81;;;18.51;98.29
22550;BME280;11441;57.164;-2.120;2023-06-22T09:49:14;101401.84;;;18.69;97.11
22550;BME280;11441;57.164;-2.120;2023-06-22T09:51:41;101407.81;;;18.60;97.93
22550;BME280;11441;57.164;-2.120;2023-06-22T09:54:08;101406.28;;;18.77;95.84
22550;BME280;11441;57.164;-2.120;2023-06-22T09:56:52;101414.69;;;18.84;100.00
22550;BME280;11441;57.164;-2.120;2023-06-22T09:59:19;101413.06;;;18.79;100.00
22550;BME280;11441;57.164;-2.120;2023-06-22T10:01:46;101413.16;;;19.19;100.00
22550;BME280;11441;57.164;-2.120;2023-06-22T10:04:13;101415.94;;;19.08;99.34
22550;BME280;11441;57.164;-2.120;2023-06-22T10:06:40;101413.31;;;18.38;100.00
22550;BME280;11441;57.164;-2.120;2023-06-22T10:09:08;101412.28;;;18.82;100.00
22550;BME280;11441;57.164;-2.120;2023-06-22T10:11:35;101405.59;;;19.34;100.00
22550;BME280;11441;57.164;-2.120;2023-06-22T10:14:21;101406.41;;;19.77;100.00
22550;BME280;11441;57.164;-2.120;2023-06-22T10:16:48;101413.56;;;19.89;100.00
22550;BME280;11441;57.164;-2.120;2023-06-22T10:19:15;101411.19;;;19.73;98.86
22550;BME280;11441;57.164;-2.120;2023-06-22T10:21:42;101414.00;;;19.77;97.06
22550;BME280;11441;57.164;-2.120;2023-06-22T10:24:09;101413.94;;;19.66;97.05
22550;BME280;11441;57.164;-2.120;2023-06-22T10:26:36;101414.38;;;19.54;98.49
22550;BME280;11441;57.164;-2.120;2023-06-22T10:29:03;101427.16;;;19.40;99.28
22550;BME280;11441;57.164;-2.120;2023-06-22T10:31:42;101423.16;;;19.41;97.11
22550;BME280;11441;57.164;-2.120;2023-06-22T10:34:09;101428.34;;;19.29;98.29
22550;BME280;11441;57.164;-2.120;2023-06-22T10:36:36;101431.53;;;19.20;98.32
22550;BME280;11441;57.164;-2.120;2023-06-22T10:39:03;101426.72;;;19.20;100.00
22550;BME280;11441;57.164;-2.120;2023-06-22T10:41:30;101426.31;;;19.00;100.00
22550;BME280;11441;57.164;-2.120;2023-06-22T10:43:57;101427.09;;;19.12;100.00
22550;BME280;11441;57.164;-2.120;2023-06-22T10:46:25;101436.31;;;19.27;98.56
22550;BME280;11441;57.164;-2.120;2023-06-22T10:48:54;101431.91;;;19.11;100.00
22550;BME280;11441;57.164;-2.120;2023-06-22T10:51:24;101437.94;;;19.38;100.00
22550;BME280;11441;57.164;-2.120;2023-06-22T10:53:51;101441.09;;;19.26;100.00
22550;BME280;11441;57.164;-2.120;2023-06-22T10:56:18;101432.28;;;19.06;99.75
22550;BME280;11441;57.164;-2.120;2023-06-22T10:58:45;101428.25;;;18.82;100.00
22550;BME280;11441;57.164;-2.120;2023-06-22T11:01:12;101428.31;;;19.07;99.89
22550;BME280;11441;57.164;-2.120;2023-06-22T11:04:00;101431.13;;;19.32;99.55
22550;BME280;11441;57.164;-2.120;2023-06-22T11:06:27;101430.72;;;19.41;98.04
22550;BME280;11441;57.164;-2.120;2023-06-22T11:08:54;101427.91;;;19.09;100.00
22550;BME280;11441;57.164;-2.120;2023-06-22T11:11:32;101426.72;;;19.20;98.58
22550;BME280;11441;57.164;-2.120;2023-06-22T11:13:59;101426.34;;;19.62;98.29
22550;BME280;11441;57.164;-2.120;2023-06-22T11:16:27;101429.94;;;19.91;97.93
22550;BME280;11441;57.164;-2.120;2023-06-22T11:18:54;101419.56;;;19.52;97.47
22550;BME280;11441;57.164;-2.120;2023-06-22T11:21:21;101418.78;;;19.48;96.34
22550;BME280;11441;57.164;-2.120;2023-06-22T11:23:48;101411.56;;;19.47;99.50
22550;BME280;11441;57.164;-2.120;2023-06-22T11:26:15;101414.41;;;19.75;96.44
22550;BME280;11441;57.164;-2.120;2023-06-22T11:28:43;101412.38;;;19.65;97.28
22550;BME280;11441;57.164;-2.120;2023-06-22T11:31:10;101419.94;;;19.90;96.03
22550;BME280;11441;57.164;-2.120;2023-06-22T11:33:52;101427.47;;;20.22;95.56
22550;BME280;11441;57.164;-2.120;2023-06-22T11:36:19;101425.88;;;20.21;93.19
22550;BME280;11441;57.164;-2.120;2023-06-22T11:38:46;101426.34;;;19.58;94.69
22550;BME280;11441;57.164;-2.120;2023-06-22T11:41:13;101425.56;;;19.79;95.10
22550;BME280;11441;57.164;-2.120;2023-06-22T11:43:40;101430.34;;;19.35;96.09
22550;BME280;11441;57.164;-2.120;2023-06-22T11:46:07;101432.34;;;19.38;96.44
22550;BME280;11441;57.164;-2.120;2023-06-22T11:48:34;101434.72;;;19.44;95.26
22550;BME280;11441;57.164;-2.120;2023-06-22T11:51:02;101433.50;;;19.66;92.71
22550;BME280;11441;57.164;-2.120;2023-06-22T11:53:29;101442.72;;;19.59;97.04
22550;BME280;11441;57.164;-2.120;2023-06-22T11:55:56;101440.31;;;19.62;95.69
22550;BME280;11441;57.164;-2.120;2023-06-22T11:58:23;101446.28;;;19.89;91.42
22550;BME280;11441;57.164;-2.120;2023-06-22T12:00:50;101453.13;;;19.77;93.40
22550;BME280;11441;57.164;-2.120;2023-06-22T12:03:19;101451.44;;;20.23;93.88
22550;BME280;11441;57.164;-2.120;2023-06-22T12:05:49;101452.63;;;20.32;93.03
22550;BME280;11441;57.164;-2.120;2023-06-22T12:08:18;101451.44;;;20.19;92.59
22550;BME280;11441;57.164;-2.120;2023-06-22T12:10:45;101452.25;;;20.12;92.75
22550;BME280;11441;57.164;-2.120;2023-06-22T12:13:12;101446.59;;;20.45;92.56
22550;BME280;11441;57.164;-2.120;2023-06-22T12:15:39;101450.22;;;20.31;92.08
22550;BME280;11441;57.164;-2.120;2023-06-22T12:18:06;101456.44;;;20.82;94.44
22550;BME280;11441;57.164;-2.120;2023-06-22T12:20:33;101455.31;;;20.65;89.93
22550;BME280;11441;57.164;-2.120;2023-06-22T12:23:01;101449.25;;;20.77;89.34
22550;BME280;11441;57.164;-2.120;2023-06-22T12:25:28;101455.31;;;20.65;88.78
22550;BME280;11441;57.164;-2.120;2023-06-22T12:27:55;101461.75;;;20.47;86.46
22550;BME280;11441;57.164;-2.120;2023-06-22T12:30:22;101457.78;;;20.34;86.19
22550;BME280;11441;57.164;-2.120;2023-06-22T12:32:49;101458.63;;;20.31;85.91
22550;BME280;11441;57.164;-2.120;2023-06-22T12:35:19;101462.50;;;20.55;88.54
22550;BME280;11441;57.164;-2.120;2023-06-22T12:37:46;101464.56;;;20.40;86.92
22550;BME280;11441;57.164;-2.120;2023-06-22T12:40:12;101470.56;;;20.35;87.61
22550;BME280;11441;57.164;-2.120;2023-06-22T12:42:40;101474.97;;;20.40;93.65
22550;BME280;11441;57.164;-2.120;2023-06-22T12:45:07;101472.53;;;20.49;91.73
22550;BME280;11441;57.164;-2.120;2023-06-22T12:47:34;101495.28;;;20.58;91.89
22550;BME280;11441;57.164;-2.120;2023-06-22T12:50:01;101499.31;;;20.46;91.99
22550;BME280;11441;57.164;-2.120;2023-06-22T12:52:30;101491.38;;;20.20;87.62
22550;BME280;11441;57.164;-2.120;2023-06-22T12:54:58;101494.94;;;20.45;88.77